createdAt,value
2019-02-20T00:02:21.281Z,10.91
2019-02-20T00:05:11.620Z,10.94
2019-02-20T00:08:02.023Z,10.98
2019-02-20T00:10:52.009Z,10.98
2019-02-20T00:13:42.451Z,10.97
2019-02-20T00:16:32.765Z,11.03
2019-02-20T00:19:23.107Z,11.06
2019-02-20T00:22:13.476Z,11.07
2019-02-20T00:25:04.365Z,11.07
2019-02-20T00:27:54.744Z,11.10
2019-02-20T00:30:44.980Z,11.10
2019-02-20T00:33:35.245Z,11.06
2019-02-20T00:36:25.671Z,11.08
2019-02-20T00:39:15.942Z,11.00
2019-02-20T00:42:06.037Z,11.04
2019-02-20T00:45:14.191Z,10.97
2019-02-20T00:48:21.049Z,11.01
2019-02-20T00:51:25.576Z,11.00
2019-02-20T00:54:16.351Z,10.99
2019-02-20T00:57:06.371Z,10.99
2019-02-20T00:59:57.966Z,10.95
2019-02-20T01:02:48.029Z,11.00
2019-02-20T01:05:38.265Z,11.00
2019-02-20T01:08:28.617Z,11.03
2019-02-20T01:11:19.379Z,10.99
2019-02-20T01:14:09.779Z,11.03
2019-02-20T01:17:00.353Z,11.05
2019-02-20T01:19:50.639Z,11.06
2019-02-20T01:22:41.945Z,11.05
2019-02-20T01:25:32.189Z,11.01
2019-02-20T01:28:22.348Z,10.96
2019-02-20T01:31:12.793Z,10.94
2019-02-20T01:34:03.327Z,10.92
2019-02-20T01:36:53.355Z,10.93
2019-02-20T01:39:44.311Z,10.90
2019-02-20T01:42:34.391Z,10.89
2019-02-20T01:45:24.807Z,10.88
2019-02-20T01:48:15.238Z,10.89
2019-02-20T01:51:05.547Z,10.81
2019-02-20T01:53:56.808Z,10.70
2019-02-20T01:56:47.173Z,10.69
2019-02-20T01:59:37.695Z,10.70
2019-02-20T02:02:27.957Z,10.69
2019-02-20T02:05:19.167Z,10.71
2019-02-20T02:08:09.540Z,10.70
2019-02-20T02:11:02.447Z,10.67
2019-02-20T02:13:52.591Z,10.65
2019-02-20T02:16:42.958Z,10.60
2019-02-20T02:19:33.894Z,10.55
2019-02-20T02:22:24.107Z,10.42
2019-02-20T02:25:14.620Z,10.62
2019-02-20T02:28:04.849Z,10.58
2019-02-20T02:30:55.236Z,10.54
2019-02-20T02:33:45.437Z,10.51
2019-02-20T02:36:35.956Z,10.54
2019-02-20T02:39:26.384Z,10.53
2019-02-20T02:42:16.581Z,10.45
2019-02-20T02:45:06.999Z,10.32
2019-02-20T02:47:56.973Z,10.35
2019-02-20T02:50:46.989Z,10.36
2019-02-20T02:53:37.140Z,10.37
2019-02-20T02:56:27.269Z,10.34
2019-02-20T02:59:17.376Z,10.42
2019-02-20T03:02:07.645Z,10.42
2019-02-20T03:04:58.233Z,10.42
2019-02-20T03:07:48.793Z,10.42
2019-02-20T03:10:39.056Z,10.41
2019-02-20T03:13:29.012Z,10.35
2019-02-20T03:16:19.440Z,10.31
2019-02-20T03:19:09.697Z,10.29
2019-02-20T03:21:59.969Z,10.28
2019-02-20T03:24:50.302Z,10.25
2019-02-20T03:27:40.612Z,10.20
2019-02-20T03:30:31.665Z,10.17
2019-02-20T03:33:22.001Z,10.09
2019-02-20T03:36:12.683Z,10.11
2019-02-20T03:39:02.885Z,10.07
2019-02-20T03:41:54.812Z,10.04
2019-02-20T03:44:44.946Z,10.03
2019-02-20T03:47:35.155Z,10.01
2019-02-20T03:50:25.549Z,9.92
2019-02-20T03:53:15.843Z,9.91
2019-02-20T03:56:06.294Z,9.94
2019-02-20T03:58:56.571Z,9.98
2019-02-20T04:01:46.823Z,9.95
2019-02-20T04:04:37.150Z,9.96
2019-02-20T04:07:27.666Z,9.94
2019-02-20T04:10:17.931Z,9.91
2019-02-20T04:13:08.161Z,9.89
2019-02-20T04:15:58.102Z,9.86
2019-02-20T04:18:48.539Z,9.79
2019-02-20T04:21:38.566Z,9.79
2019-02-20T04:24:29.007Z,9.81
2019-02-20T04:27:19.363Z,9.86
2019-02-20T04:30:09.545Z,9.85
2019-02-20T04:32:59.898Z,9.85
2019-02-20T04:35:50.396Z,9.82
2019-02-20T04:38:40.765Z,9.81
2019-02-20T04:41:31.166Z,9.86
2019-02-20T04:44:21.486Z,9.85
2019-02-20T04:47:11.846Z,9.89
2019-02-20T04:50:02.160Z,9.95
2019-02-20T04:52:53.676Z,9.95
2019-02-20T04:55:43.902Z,9.95
2019-02-20T04:58:34.305Z,9.93
2019-02-20T05:01:24.492Z,9.88
2019-02-20T05:04:14.849Z,9.85
2019-02-20T05:07:05.250Z,9.83
2019-02-20T05:09:55.408Z,9.86
2019-02-20T05:12:45.715Z,9.81
2019-02-20T05:15:35.888Z,9.79
2019-02-20T05:18:26.999Z,9.83
2019-02-20T05:21:17.252Z,9.85
2019-02-20T05:24:07.195Z,9.90
2019-02-20T05:26:57.810Z,9.88
2019-02-20T05:29:47.976Z,9.92
2019-02-20T05:32:38.491Z,9.99
2019-02-20T05:35:29.078Z,10.10
2019-02-20T05:38:19.671Z,10.16
2019-02-20T05:41:10.109Z,10.31
2019-02-20T05:44:00.588Z,10.48
2019-02-20T05:46:50.858Z,10.67
2019-02-20T05:49:41.025Z,10.89
2019-02-20T05:52:31.322Z,11.19
2019-02-20T05:55:21.623Z,11.45
2019-02-20T05:58:12.805Z,11.93
2019-02-20T06:01:03.265Z,12.64
2019-02-20T06:03:53.598Z,13.56
2019-02-20T06:06:44.303Z,14.65
2019-02-20T06:09:35.724Z,15.60
2019-02-20T06:12:26.441Z,15.90
2019-02-20T06:15:16.671Z,16.87
2019-02-20T06:18:07.365Z,17.40
2019-02-20T06:20:57.356Z,18.25
2019-02-20T06:23:47.698Z,18.54
2019-02-20T06:26:37.991Z,17.74
2019-02-20T06:29:28.144Z,18.42
2019-02-20T06:32:18.448Z,19.38
2019-02-20T06:35:08.836Z,19.85
2019-02-20T06:37:59.344Z,20.93
2019-02-20T06:40:49.931Z,21.90
2019-02-20T06:43:40.974Z,23.20
2019-02-20T06:46:31.676Z,23.81
2019-02-20T06:49:22.543Z,24.30
2019-02-20T06:52:13.487Z,24.95
2019-02-20T06:55:04.355Z,25.65
2019-02-20T06:57:55.120Z,24.98
2019-02-20T07:00:45.994Z,25.70
2019-02-20T07:03:37.107Z,26.31
2019-02-20T07:06:41.847Z,27.03
2019-02-20T07:10:08.318Z,27.18
2019-02-20T07:13:36.541Z,27.25
2019-02-20T07:16:57.351Z,27.17
2019-02-20T07:20:24.079Z,27.85
2019-02-20T07:23:40.189Z,27.98
2019-02-20T07:27:24.383Z,28.18
2019-02-20T07:30:15.315Z,28.39
2019-02-20T07:33:08.975Z,28.41
2019-02-20T07:35:59.633Z,28.39
2019-02-20T07:38:50.522Z,28.58
2019-02-20T07:41:41.511Z,28.59
2019-02-20T07:44:32.530Z,26.74
2019-02-20T07:47:23.606Z,24.82
2019-02-20T07:50:18.265Z,24.26
2019-02-20T07:53:09.084Z,24.13
2019-02-20T07:55:59.691Z,24.43
2019-02-20T07:58:50.570Z,25.11
2019-02-20T08:01:41.498Z,23.22
2019-02-20T08:04:32.361Z,23.69
2019-02-20T08:07:22.973Z,25.61
2019-02-20T08:10:14.288Z,26.70
2019-02-20T08:13:04.933Z,25.06
2019-02-20T08:15:55.835Z,23.94
2019-02-20T08:18:46.872Z,23.80
2019-02-20T08:21:37.971Z,22.65
2019-02-20T08:24:28.832Z,24.57
2019-02-20T08:27:20.861Z,22.94
2019-02-20T08:30:14.401Z,22.57
2019-02-20T08:33:05.197Z,22.35
2019-02-20T08:35:56.461Z,23.46
2019-02-20T08:38:47.472Z,24.13
2019-02-20T08:41:38.465Z,22.55
2019-02-20T08:44:29.512Z,22.11
2019-02-20T08:47:19.632Z,21.84
2019-02-20T08:50:11.563Z,21.34
2019-02-20T08:53:01.636Z,20.96
2019-02-20T08:55:52.323Z,19.97
2019-02-20T08:58:42.450Z,19.37
2019-02-20T09:01:34.117Z,19.25
2019-02-20T09:04:24.343Z,19.15
2019-02-20T09:07:14.719Z,18.64
2019-02-20T09:10:05.445Z,18.75
2019-02-20T09:12:55.597Z,18.46
2019-02-20T09:15:45.759Z,18.06
2019-02-20T09:18:35.866Z,17.90
2019-02-20T09:21:26.125Z,18.06
2019-02-20T09:24:16.447Z,18.69
2019-02-20T09:27:06.619Z,19.01
2019-02-20T09:29:57.128Z,19.49
2019-02-20T09:32:47.332Z,20.05
2019-02-20T09:35:37.802Z,20.42
2019-02-20T09:38:28.086Z,19.41
2019-02-20T09:41:18.640Z,19.66
2019-02-20T09:44:08.923Z,19.34
2019-02-20T09:46:59.408Z,18.86
2019-02-20T09:49:49.633Z,18.61
2019-02-20T09:52:39.655Z,18.15
2019-02-20T09:55:29.776Z,17.88
2019-02-20T09:58:20.155Z,18.12
2019-02-20T10:01:11.156Z,17.79
2019-02-20T10:04:01.781Z,17.66
2019-02-20T10:06:52.100Z,17.60
2019-02-20T10:09:42.781Z,17.32
2019-02-20T10:12:34.219Z,17.12
2019-02-20T10:15:24.867Z,17.40
2019-02-20T10:18:15.210Z,17.19
2019-02-20T10:21:05.442Z,17.22
2019-02-20T10:23:55.806Z,16.49
2019-02-20T10:26:46.776Z,16.31
2019-02-20T10:29:37.098Z,16.45
2019-02-20T10:32:27.397Z,16.20
2019-02-20T10:35:17.699Z,16.29
2019-02-20T10:38:08.002Z,15.82
2019-02-20T10:40:58.094Z,15.78
2019-02-20T10:43:48.555Z,15.60
2019-02-20T10:46:39.019Z,15.75
2019-02-20T10:49:32.055Z,15.69
2019-02-20T10:52:22.249Z,15.76
2019-02-20T10:55:12.960Z,15.91
2019-02-20T10:58:03.143Z,15.95
2019-02-20T11:00:53.458Z,15.94
2019-02-20T11:03:43.696Z,15.75
2019-02-20T11:06:35.066Z,15.48
2019-02-20T11:09:25.295Z,15.36
2019-02-20T11:12:15.536Z,15.24
2019-02-20T11:15:05.962Z,15.27
2019-02-20T11:17:58.920Z,15.13
2019-02-20T11:20:49.173Z,14.82
2019-02-20T11:23:39.670Z,14.86
2019-02-20T11:26:31.098Z,14.92
2019-02-20T11:29:21.583Z,14.91
2019-02-20T11:32:11.967Z,14.95
2019-02-20T11:35:02.556Z,15.18
2019-02-20T11:37:52.836Z,15.08
2019-02-20T11:40:43.241Z,15.16
2019-02-20T11:43:33.518Z,15.11
2019-02-20T11:46:23.582Z,15.14
2019-02-20T11:49:13.872Z,15.09
2019-02-20T11:52:05.181Z,15.07
2019-02-20T11:54:57.190Z,14.85
2019-02-20T11:57:47.637Z,14.91
2019-02-20T12:00:38.061Z,15.10
2019-02-20T12:03:28.397Z,14.96
2019-02-20T12:06:18.825Z,15.08
2019-02-20T12:09:09.110Z,14.84
2019-02-20T12:11:59.386Z,14.69
2019-02-20T12:14:50.747Z,14.63
2019-02-20T12:17:41.083Z,14.60
2019-02-20T12:20:31.734Z,14.70
2019-02-20T12:23:22.039Z,14.49
2019-02-20T12:26:12.470Z,14.49
2019-02-20T12:29:02.794Z,14.28
2019-02-20T12:31:53.059Z,14.38
2019-02-20T12:34:43.550Z,14.44
2019-02-20T12:37:33.892Z,14.40
2019-02-20T12:40:24.179Z,14.25
2019-02-20T12:43:14.425Z,14.23
2019-02-20T12:46:04.840Z,14.03
2019-02-20T12:48:57.020Z,14.10
2019-02-20T12:51:47.315Z,14.01
2019-02-20T12:54:37.640Z,14.16
2019-02-20T12:57:27.863Z,14.21
2019-02-20T13:00:19.248Z,14.08
2019-02-20T13:03:09.353Z,13.91
2019-02-20T13:05:59.727Z,13.85
2019-02-20T13:08:50.278Z,13.92
2019-02-20T13:11:40.738Z,13.98
2019-02-20T13:14:30.955Z,13.99
2019-02-20T13:17:21.259Z,14.00
2019-02-20T13:20:11.363Z,13.98
2019-02-20T13:23:02.105Z,13.99
2019-02-20T13:25:52.454Z,13.79
2019-02-20T13:28:42.576Z,13.95
2019-02-20T13:31:32.968Z,14.03
2019-02-20T13:34:23.119Z,14.10
2019-02-20T13:37:13.641Z,14.13
2019-02-20T13:40:03.896Z,14.18
2019-02-20T13:42:54.085Z,14.13
2019-02-20T13:45:44.285Z,14.15
2019-02-20T13:48:35.009Z,14.21
2019-02-20T13:51:26.361Z,14.33
2019-02-20T13:54:16.630Z,14.21
2019-02-20T13:57:07.060Z,14.16
2019-02-20T13:59:57.646Z,14.12
2019-02-20T14:02:47.998Z,14.10
2019-02-20T14:05:38.457Z,13.99
2019-02-20T14:08:28.793Z,13.95
2019-02-20T14:11:19.356Z,13.91
2019-02-20T14:14:09.759Z,14.03
2019-02-20T14:17:00.129Z,14.10
2019-02-20T14:19:50.436Z,14.09
2019-02-20T14:22:40.730Z,14.08
2019-02-20T14:25:31.136Z,14.04
2019-02-20T14:28:21.383Z,13.93
2019-02-20T14:31:11.747Z,13.85
2019-02-20T14:34:02.021Z,13.76
2019-02-20T14:36:53.457Z,13.91
2019-02-20T14:39:43.863Z,13.97
2019-02-20T14:42:36.258Z,14.04
2019-02-20T14:45:27.061Z,13.93
2019-02-20T14:48:17.576Z,13.73
2019-02-20T14:51:07.998Z,13.71
2019-02-20T14:53:58.247Z,13.67
2019-02-20T14:56:48.575Z,13.72
2019-02-20T14:59:39.211Z,13.67
2019-02-20T15:02:30.078Z,13.93
2019-02-20T15:05:20.614Z,14.13
2019-02-20T15:08:11.010Z,14.15
2019-02-20T15:11:01.431Z,14.20
2019-02-20T15:13:54.184Z,14.20
2019-02-20T15:16:43.660Z,14.31
2019-02-20T15:19:34.098Z,14.33
2019-02-20T15:22:25.929Z,14.43
2019-02-20T15:25:16.367Z,14.49
2019-02-20T15:28:06.459Z,14.54
2019-02-20T15:30:57.146Z,14.56
2019-02-20T15:33:47.730Z,14.55
2019-02-20T15:36:38.048Z,14.60
2019-02-20T15:39:28.392Z,14.60
2019-02-20T15:42:18.940Z,14.56
2019-02-20T15:45:09.437Z,14.39
2019-02-20T15:47:59.686Z,14.37
2019-02-20T15:50:50.983Z,14.35
2019-02-20T15:53:41.313Z,14.31
2019-02-20T15:56:31.884Z,14.25
2019-02-20T15:59:21.995Z,14.20
2019-02-20T16:02:12.381Z,14.11
2019-02-20T16:05:02.646Z,14.02
2019-02-20T16:07:53.540Z,14.01
2019-02-20T16:10:43.968Z,13.87
2019-02-20T16:13:34.449Z,13.74
2019-02-20T16:16:24.763Z,13.67
2019-02-20T16:19:15.114Z,13.50
2019-02-20T16:22:05.226Z,13.41
2019-02-20T16:24:55.820Z,13.39
2019-02-20T16:27:47.837Z,13.42
2019-02-20T16:30:38.615Z,13.24
2019-02-20T16:33:29.110Z,13.30
2019-02-20T16:36:22.051Z,13.17
2019-02-20T16:39:12.087Z,13.13
2019-02-20T16:42:02.548Z,13.09
2019-02-20T16:44:52.879Z,13.00
2019-02-20T16:47:42.936Z,12.87
2019-02-20T16:50:33.724Z,12.79
2019-02-20T16:53:23.994Z,12.67
2019-02-20T16:56:14.459Z,12.67
2019-02-20T16:59:05.219Z,12.66
2019-02-20T17:01:55.599Z,12.58
2019-02-20T17:04:45.837Z,12.60
2019-02-20T17:07:36.012Z,12.65
2019-02-20T17:10:26.354Z,12.57
2019-02-20T17:13:16.812Z,12.65
2019-02-20T17:16:07.171Z,12.55
2019-02-20T17:18:57.354Z,12.54
2019-02-20T17:21:47.575Z,12.61
2019-02-20T17:24:37.529Z,12.63
2019-02-20T17:27:30.788Z,12.54
2019-02-20T17:30:20.801Z,12.52
2019-02-20T17:33:11.608Z,12.45
2019-02-20T17:36:01.707Z,12.53
2019-02-20T17:38:52.776Z,12.55
2019-02-20T17:41:43.067Z,12.47
2019-02-20T17:44:33.441Z,12.56
2019-02-20T17:47:23.661Z,12.52
2019-02-20T17:50:15.214Z,12.50
2019-02-20T17:53:05.164Z,12.35
2019-02-20T17:55:55.318Z,12.32
2019-02-20T17:58:45.639Z,12.33
2019-02-20T18:01:36.076Z,12.36
2019-02-20T18:04:26.130Z,12.32
2019-02-20T18:07:17.190Z,12.33
2019-02-20T18:10:10.625Z,12.32
2019-02-20T18:13:02.953Z,12.32
2019-02-20T18:15:53.111Z,12.20
2019-02-20T18:18:43.867Z,12.19
2019-02-20T18:21:34.422Z,12.24
2019-02-20T18:24:26.124Z,12.23
2019-02-20T18:27:16.291Z,12.27
2019-02-20T18:30:06.848Z,12.24
2019-02-20T18:32:57.804Z,12.23
2019-02-20T18:35:49.273Z,12.24
2019-02-20T18:38:39.529Z,12.20
2019-02-20T18:41:30.048Z,12.20
2019-02-20T18:44:20.440Z,12.09
2019-02-20T18:47:11.091Z,12.08
2019-02-20T18:50:01.500Z,12.02
2019-02-20T18:52:55.673Z,12.03
2019-02-20T18:55:46.000Z,12.08
2019-02-20T18:58:36.410Z,12.09
2019-02-20T19:01:26.918Z,12.09
2019-02-20T19:04:17.512Z,12.05
2019-02-20T19:07:12.471Z,12.06
2019-02-20T19:10:02.627Z,12.09
2019-02-20T19:13:28.924Z,12.10
2019-02-20T19:17:18.540Z,12.19
2019-02-20T19:20:55.027Z,12.14
2019-02-20T19:24:21.246Z,12.19
2019-02-20T19:27:33.239Z,12.18
2019-02-20T19:30:47.987Z,12.17
2019-02-20T19:33:57.063Z,12.24
2019-02-20T19:37:10.334Z,12.33
2019-02-20T19:40:43.275Z,12.32
2019-02-20T19:44:01.274Z,12.29
2019-02-20T19:47:24.042Z,12.33
2019-02-20T19:50:46.215Z,12.31
2019-02-20T19:54:33.805Z,12.27
2019-02-20T19:57:48.670Z,12.15
2019-02-20T20:01:20.011Z,12.03
2019-02-20T20:04:23.592Z,11.96
2019-02-20T20:07:55.636Z,11.88
2019-02-20T20:10:58.932Z,11.89
2019-02-20T20:14:33.462Z,11.84
2019-02-20T20:18:20.040Z,11.79
2019-02-20T20:21:38.823Z,11.75
2019-02-20T20:24:54.967Z,11.74
2019-02-20T20:28:35.726Z,11.75
2019-02-20T20:32:07.176Z,11.76
2019-02-20T20:35:40.385Z,11.75
2019-02-20T20:39:19.502Z,11.75
2019-02-20T20:43:04.187Z,11.75
2019-02-20T20:46:31.519Z,11.69
2019-02-20T20:50:04.977Z,11.61
2019-02-20T20:53:40.970Z,11.65
2019-02-20T20:57:00.408Z,11.71
2019-02-20T21:00:29.669Z,11.77
2019-02-20T21:03:19.711Z,11.85
2019-02-20T21:06:41.599Z,11.81
2019-02-20T21:10:18.876Z,11.76
2019-02-20T21:13:34.804Z,11.73
2019-02-20T21:16:36.772Z,11.71
2019-02-20T21:20:08.009Z,11.74
2019-02-20T21:23:25.104Z,11.75
2019-02-20T21:26:44.537Z,11.74
2019-02-20T21:29:52.358Z,11.75
2019-02-20T21:33:34.327Z,11.70
2019-02-20T21:36:36.359Z,11.72
2019-02-20T21:39:41.779Z,11.66
2019-02-20T21:42:58.058Z,11.63
2019-02-20T21:46:33.710Z,11.57
2019-02-20T21:49:42.692Z,11.57
2019-02-20T21:53:09.898Z,11.52
2019-02-20T21:56:23.503Z,11.47
2019-02-20T22:00:00.861Z,11.42
2019-02-20T22:02:59.894Z,11.35
2019-02-20T22:06:25.184Z,11.36
2019-02-20T22:09:39.446Z,11.31
2019-02-20T22:13:06.598Z,11.22
2019-02-20T22:16:11.461Z,11.19
2019-02-20T22:19:53.580Z,11.09
2019-02-20T22:23:20.318Z,11.05
2019-02-20T22:26:46.336Z,11.01
2019-02-20T22:30:13.701Z,10.96
2019-02-20T22:33:32.085Z,11.03
2019-02-20T22:37:30.627Z,11.04
2019-02-20T22:41:02.499Z,11.02
2019-02-20T22:44:58.311Z,10.97
2019-02-20T22:48:23.690Z,11.04
2019-02-20T22:51:32.033Z,11.07
2019-02-20T22:55:06.584Z,11.05
2019-02-20T22:58:20.075Z,11.16
2019-02-20T23:02:00.476Z,11.16
2019-02-20T23:05:30.992Z,11.18
2019-02-20T23:09:00.540Z,11.19
2019-02-20T23:12:30.252Z,11.21
2019-02-20T23:15:20.463Z,11.22
2019-02-20T23:18:10.754Z,11.36
2019-02-20T23:21:01.724Z,11.35
2019-02-20T23:23:52.009Z,11.35
2019-02-20T23:26:42.335Z,11.36
2019-02-20T23:29:32.638Z,11.37
2019-02-20T23:32:22.863Z,11.36
2019-02-20T23:35:12.840Z,11.35
2019-02-20T23:38:02.868Z,11.30
2019-02-20T23:40:53.125Z,11.18
2019-02-20T23:43:43.570Z,11.29
2019-02-20T23:46:34.001Z,11.28
2019-02-20T23:49:24.394Z,11.22
2019-02-20T23:52:14.617Z,11.22
2019-02-20T23:55:06.654Z,11.16
2019-02-20T23:57:59.462Z,11.19
